KAKR/AKR METAR and TAF weather

Enter ICAO airport designator
Station Type Date Time Source
KAKR METAR 2020/02/21 14:54 UTC NOAA

KAKR 211454Z AUTO 26009KT 10SM CLR M04/M12 A3056 RMK AO2 SLP365 T10441117 51008 $


Station Type Date Time Source
KAKR Decoded METAR 2020/02/21 14:54 UTC NOAA

AKRON FULTON INTERNATIONAL, OH, United States (KAKR) 41-02N 081-28W 363M
Feb 21, 2020 - 09:54 AM EST / 2020.02.21 1454 UTC
Wind: from the W (260 degrees) at 10 MPH (9 KT):0
Visibility: 10 mile(s):0
Sky conditions: clear
Temperature: 24.1 F (-4.4 C)
Windchill: 14 F (-10 C):1
Dew Point: 10.9 F (-11.7 C)
Relative Humidity: 56%
Pressure (altimeter): 30.56 in. Hg (1034 hPa)
Pressure tendency: 0.02 inches (0.8 hPa) higher than three hours ago
ob: KAKR 211454Z AUTO 26009KT 10SM CLR M04/M12 A3056 RMK AO2 SLP365 T10441117 51008
cycle: 15

Station Type Date Time Source
KAKR TAF UTC NOAA

Error!

Example: see airport list